Time;durP1;ratioP1;P1;durP2;ratioP2;P2;SDS_P1;SDS_P2;PMS_P1;PMS_P2;Temp;Humidity;BMP_temperature;BMP_pressure;BME280_temperature;BME280_humidity;BME280_pressure;Samples;Min_cycle;Max_cycle;Signal;HPM_P1;HPM_P2
2023/11/26 00:00:58;;;;;;;2.05;1.30;;;;;;;0.26;83.38;92060.84;4182900;28;20127;-69
2023/11/26 00:03:03;;;;;;;1.92;1.27;;;;;;;-0.08;83.18;92064.38;4174900;28;20154;-68
2023/11/26 00:05:07;;;;;;;2.25;1.50;;;;;;;0.09;84.07;92070.34;4189981;28;20082;-69
2023/11/26 00:07:09;;;;;;;2.15;1.35;;;;;;;0.29;83.70;92088.84;4184926;28;20048;-70
2023/11/26 00:09:11;;;;;;;2.05;1.33;;;;;;;0.22;83.31;92081.94;4189859;28;20060;-69
2023/11/26 00:11:13;;;;;;;1.95;1.42;;;;;;;0.35;83.39;92088.19;4175728;28;20064;-69
2023/11/26 00:13:15;;;;;;;2.30;1.55;;;;;;;0.44;83.17;92090.78;4194330;28;20057;-69
2023/11/26 00:15:17;;;;;;;2.05;1.33;;;;;;;0.61;83.57;92089.78;4192851;28;20056;-67
2023/11/26 00:17:20;;;;;;;2.38;1.33;;;;;;;0.72;82.88;92097.16;4169310;28;20083;-69
2023/11/26 00:19:22;;;;;;;1.83;1.17;;;;;;;0.66;82.18;92104.75;4182571;28;20090;-68
2023/11/26 00:21:24;;;;;;;2.50;1.33;;;;;;;0.70;81.96;92101.69;4195206;28;20055;-68
2023/11/26 00:23:26;;;;;;;2.40;1.33;;;;;;;0.50;81.50;92105.59;4191133;28;20538;-68
2023/11/26 00:25:28;;;;;;;1.90;1.15;;;;;;;0.39;82.22;92107.50;4190287;28;20051;-68
2023/11/26 00:27:30;;;;;;;4.82;1.30;;;;;;;0.23;82.76;92115.22;4176211;28;20084;-71
2023/11/26 00:29:40;;;;;;;1.48;1.10;;;;;;;0.36;83.23;92109.59;4191673;28;20052;-69
2023/11/26 00:31:42;;;;;;;3.08;1.60;;;;;;;0.57;83.45;92104.75;4187325;28;20178;-69
2023/11/26 00:33:48;;;;;;;1.70;1.20;;;;;;;0.68;82.50;92106.19;4195021;28;20490;-68
2023/11/26 00:35:49;;;;;;;2.58;1.40;;;;;;;0.61;82.36;92103.47;4197152;28;20506;-69
2023/11/26 00:37:51;;;;;;;4.20;1.65;;;;;;;0.58;82.64;92102.97;4192750;28;20087;-71
2023/11/26 00:39:53;;;;;;;2.45;1.40;;;;;;;0.51;82.63;92097.66;4192259;28;20415;-68
2023/11/26 00:41:56;;;;;;;2.55;1.25;;;;;;;0.52;82.30;92104.44;4190120;28;20052;-69
2023/11/26 00:43:58;;;;;;;2.28;1.50;;;;;;;0.34;82.07;92103.81;4178472;28;20546;-69
2023/11/26 00:46:00;;;;;;;2.67;1.27;;;;;;;0.40;82.64;92100.59;4190913;28;20052;-69
2023/11/26 00:48:02;;;;;;;2.13;1.33;;;;;;;-0.18;83.99;92111.81;4194455;28;20238;-69
2023/11/26 00:50:04;;;;;;;2.20;1.33;;;;;;;-0.02;84.73;92107.50;4185540;28;20052;-70
2023/11/26 00:52:06;;;;;;;2.00;1.10;;;;;;;-0.07;84.53;92103.78;4193005;28;20053;-68
2023/11/26 00:54:08;;;;;;;2.05;1.40;;;;;;;-0.11;84.85;92102.50;4186588;28;20051;-68
2023/11/26 00:56:12;;;;;;;3.15;1.15;;;;;;;0.06;85.39;92108.47;4187017;28;20052;-70
2023/11/26 00:58:14;;;;;;;;;;;;;;;0.13;84.86;92110.25;4195866;28;20561;-68
2023/11/26 01:00:16;;;;;;;2.47;1.27;;;;;;;0.18;84.62;92109.75;4197227;28;19920;-71
2023/11/26 01:02:22;;;;;;;2.63;1.50;;;;;;;0.08;84.13;92119.41;4180304;28;20045;-68
2023/11/26 01:04:24;;;;;;;2.25;1.10;;;;;;;0.23;84.22;92122.16;4196294;28;20056;-69
2023/11/26 01:06:26;;;;;;;2.08;1.00;;;;;;;0.33;83.94;92120.22;4162607;28;20132;-70
2023/11/26 01:08:28;;;;;;;2.17;1.48;;;;;;;0.38;83.69;92123.91;4193253;28;20463;-71
2023/11/26 01:10:30;;;;;;;1.80;1.30;;;;;;;0.18;83.95;92122.63;4195958;28;20040;-69
2023/11/26 01:12:32;;;;;;;2.78;1.20;;;;;;;0.31;83.67;92124.75;4188338;28;20128;-70
2023/11/26 01:14:34;;;;;;;1.60;1.00;;;;;;;0.45;83.76;92123.28;4192749;28;20414;-69
2023/11/26 01:16:35;;;;;;;2.90;1.00;;;;;;;0.41;83.01;92127.97;4178684;28;20129;-69
2023/11/26 01:18:38;;;;;;;1.45;1.10;;;;;;;0.30;82.75;92126.53;4194093;28;20060;-68
2023/11/26 01:20:40;;;;;;;1.33;0.90;;;;;;;0.52;83.02;92129.41;4173352;28;20068;-69
2023/11/26 01:22:42;;;;;;;1.42;0.85;;;;;;;0.54;82.95;92128.28;4188691;28;20493;-70
2023/11/26 01:24:44;;;;;;;1.55;1.00;;;;;;;0.67;82.39;92130.34;4188988;28;20098;-69
2023/11/26 01:26:46;;;;;;;1.65;0.95;;;;;;;0.74;81.88;92141.63;4195900;28;20106;-68
2023/11/26 01:28:47;;;;;;;1.75;1.10;;;;;;;0.72;81.74;92145.31;4195613;28;20044;-70
2023/11/26 01:30:49;;;;;;;1.70;0.85;;;;;;;0.31;81.43;92143.56;4194463;28;20548;-68
2023/11/26 01:32:52;;;;;;;1.58;1.05;;;;;;;0.45;82.69;92149.03;4183084;28;20055;-69
2023/11/26 01:34:54;;;;;;;1.55;1.05;;;;;;;0.45;82.44;92149.03;4196896;28;20052;-69
2023/11/26 01:36:56;;;;;;;1.92;1.15;;;;;;;0.58;83.15;92154.50;4186745;28;20140;-67
2023/11/26 01:38:57;;;;;;;1.42;1.00;;;;;;;0.73;82.48;92159.81;4195407;28;20072;-69
2023/11/26 01:40:59;;;;;;;1.20;0.98;;;;;;;0.60;81.52;92163.69;4177429;28;20048;-70
2023/11/26 01:43:01;;;;;;;1.52;1.17;;;;;;;0.65;82.48;92165.78;4190304;28;20487;-68
2023/11/26 01:45:04;;;;;;;1.52;1.10;;;;;;;0.58;81.78;92180.25;4191809;28;20048;-72
2023/11/26 01:47:07;;;;;;;0.98;0.80;;;;;;;0.58;81.27;92181.09;4195152;28;20563;-68
2023/11/26 01:49:09;;;;;;;1.10;0.90;;;;;;;0.53;81.73;92178.16;4184965;28;20071;-69
2023/11/26 01:51:12;;;;;;;1.20;0.90;;;;;;;0.58;82.36;92182.84;4166075;28;20049;-68
2023/11/26 01:53:14;;;;;;;1.20;0.90;;;;;;;0.61;82.29;92185.13;4183185;28;20049;-68
2023/11/26 01:55:17;;;;;;;1.67;1.20;;;;;;;0.60;81.73;92186.06;4191179;28;20464;-69
2023/11/26 01:57:19;;;;;;;1.42;0.93;;;;;;;0.24;82.57;92185.53;4176332;28;20056;-68
2023/11/26 01:59:22;;;;;;;2.35;1.23;;;;;;;0.23;82.90;92197.63;4177480;28;20056;-69
2023/11/26 02:01:25;;;;;;;1.33;0.90;;;;;;;0.37;82.80;92194.44;4195835;28;20040;-69
2023/11/26 02:03:27;;;;;;;1.17;0.82;;;;;;;0.37;82.74;92202.16;4165468;28;20049;-69
2023/11/26 02:05:29;;;;;;;1.50;1.00;;;;;;;0.34;82.50;92201.66;4185037;28;20052;-70
2023/11/26 02:07:30;;;;;;;1.80;1.10;;;;;;;0.45;82.25;92208.28;4195048;28;20044;-69
2023/11/26 02:09:32;;;;;;;1.30;0.93;;;;;;;0.40;82.31;92214.72;4195883;28;20087;-71
2023/11/26 02:11:34;;;;;;;1.38;0.93;;;;;;;0.42;82.89;92206.03;4181628;28;20049;-69
2023/11/26 02:13:46;;;;;;;1.33;1.00;;;;;;;0.26;82.66;92230.78;4195618;28;20052;-69
2023/11/26 02:15:48;;;;;;;1.70;1.10;;;;;;;0.21;83.01;92227.88;4191460;28;20158;-69
2023/11/26 02:17:50;;;;;;;1.48;0.90;;;;;;;0.35;83.46;92226.47;4191033;28;20045;-68
2023/11/26 02:19:53;;;;;;;1.20;0.80;;;;;;;0.34;82.83;92230.78;4187346;28;20530;-68
2023/11/26 02:21:55;;;;;;;1.73;0.95;;;;;;;0.46;83.24;92233.09;4177833;28;20052;-68
2023/11/26 02:23:57;;;;;;;1.52;1.00;;;;;;;0.43;83.14;92238.53;4190009;28;20071;-69
2023/11/26 02:25:59;;;;;;;1.70;1.30;;;;;;;0.53;83.09;92252.09;4194637;28;20135;-69
2023/11/26 02:28:01;;;;;;;1.70;1.13;;;;;;;0.48;82.98;92242.25;4194261;28;20059;-69
2023/11/26 02:30:03;;;;;;;1.65;1.05;;;;;;;0.46;82.45;92251.91;4177721;28;20044;-70
2023/11/26 02:32:06;;;;;;;1.50;1.00;;;;;;;0.47;82.58;92268.16;4191227;28;20063;-69
2023/11/26 02:34:08;;;;;;;1.60;1.10;;;;;;;0.30;82.91;92263.00;4193862;28;20748;-71
2023/11/26 02:36:10;;;;;;;1.52;1.00;;;;;;;0.32;83.03;92273.94;4191024;28;20049;-69
2023/11/26 02:38:12;;;;;;;1.85;1.20;;;;;;;-0.06;84.16;92270.91;4186973;28;20071;-69
2023/11/26 02:40:19;;;;;;;1.35;1.00;;;;;;;-0.05;84.14;92272.50;4183441;28;20052;-70
2023/11/26 02:42:22;;;;;;;1.65;1.05;;;;;;;-0.04;84.26;92274.16;4190587;28;20048;-67
2023/11/26 02:44:24;;;;;;;1.60;0.93;;;;;;;0.01;84.47;92280.59;4177046;28;20155;-70
2023/11/26 02:46:27;;;;;;;1.30;1.02;;;;;;;0.06;84.64;92278.34;4179855;28;20122;-70
2023/11/26 02:48:29;;;;;;;1.70;1.23;;;;;;;0.15;83.61;92283.38;4191422;28;20535;-70
2023/11/26 02:50:31;;;;;;;1.80;1.10;;;;;;;0.23;84.01;92289.53;4191982;28;20097;-70
2023/11/26 02:52:33;;;;;;;1.45;1.13;;;;;;;0.29;83.25;92289.69;4177249;28;20396;-68
2023/11/26 02:54:35;;;;;;;1.65;1.13;;;;;;;0.22;82.84;92299.03;4192878;28;20044;-69
2023/11/26 02:56:41;;;;;;;1.77;1.20;;;;;;;0.16;82.36;92295.28;4194348;28;20052;-69
2023/11/26 02:58:43;;;;;;;2.30;1.30;;;;;;;0.13;83.15;92290.47;4176968;28;20053;-67
2023/11/26 03:00:47;;;;;;;3.15;1.17;;;;;;;0.18;82.99;92300.28;4194103;28;20119;-69
2023/11/26 03:02:48;;;;;;;2.08;1.20;;;;;;;0.19;83.16;92299.31;4166999;28;20099;-70
2023/11/26 03:04:53;;;;;;;2.05;1.25;;;;;;;0.27;83.07;92306.28;4199291;28;20475;-69
2023/11/26 03:06:57;;;;;;;1.83;1.27;;;;;;;0.31;82.92;92307.56;4194908;28;20483;-69
2023/11/26 03:09:10;;;;;;;1.73;1.23;;;;;;;0.32;82.43;92315.16;4191502;28;20173;-68
2023/11/26 03:13:32;;;;;;;2.15;1.20;;;;;;;0.05;81.88;92329.03;4192874;28;20055;-69
2023/11/26 03:15:37;;;;;;;2.20;1.42;;;;;;;0.01;83.48;92319.22;4173192;28;20049;-68
2023/11/26 03:17:39;;;;;;;4.18;1.35;;;;;;;0.04;83.13;92337.72;4170286;28;20056;-69
2023/11/26 03:19:43;;;;;;;2.53;1.83;;;;;;;0.04;83.07;92332.56;4193551;28;20295;-70
2023/11/26 03:21:47;;;;;;;3.33;1.70;;;;;;;0.11;83.49;92335.34;4193759;28;20119;-67
2023/11/26 03:23:49;;;;;;;3.08;1.67;;;;;;;0.02;82.58;92349.13;4191319;28;20041;-68
2023/11/26 03:25:51;;;;;;;2.58;2.10;;;;;;;-0.05;82.64;92344.59;4194949;28;20060;-69
2023/11/26 03:27:54;;;;;;;2.60;1.70;;;;;;;-0.33;83.52;92336.22;4185438;28;20542;-70
2023/11/26 03:29:57;;;;;;;3.20;2.10;;;;;;;-0.19;83.98;92352.06;4193445;28;20044;-70
2023/11/26 03:31:58;;;;;;;3.47;2.40;;;;;;;-0.25;84.41;92345.78;4187040;28;20051;-69
2023/11/26 03:34:06;;;;;;;4.32;2.75;;;;;;;-0.16;84.37;92360.28;4194567;28;20083;-70
2023/11/26 03:36:10;;;;;;;3.55;2.65;;;;;;;-0.10;83.42;92353.75;4188115;28;20049;-68
2023/11/26 03:38:14;;;;;;;3.85;2.55;;;;;;;-0.09;82.93;92363.88;4194751;28;20067;-69
2023/11/26 03:40:16;;;;;;;3.55;2.85;;;;;;;0.03;82.66;92379.06;4176625;28;20491;-69
2023/11/26 03:42:19;;;;;;;4.47;3.17;;;;;;;-0.06;82.26;92373.88;4192599;28;20406;-71
2023/11/26 03:44:30;;;;;;;4.07;3.10;;;;;;;-0.16;81.58;92368.00;4181702;28;20067;-70
2023/11/26 03:46:32;;;;;;;3.90;2.85;;;;;;;-0.05;82.11;92379.81;4183976;28;20131;-71
2023/11/26 03:48:34;;;;;;;4.68;3.28;;;;;;;-0.19;82.29;92388.91;4194280;28;20053;-70
2023/11/26 03:50:37;;;;;;;4.60;3.38;;;;;;;-0.19;82.04;92394.06;4188631;28;20152;-72
2023/11/26 03:52:39;;;;;;;5.70;4.05;;;;;;;-0.04;81.42;92392.53;4190001;28;20049;-68
2023/11/26 03:54:41;;;;;;;5.03;4.28;;;;;;;-0.14;81.04;92401.31;4188431;28;20114;-70
2023/11/26 03:56:43;;;;;;;5.18;4.38;;;;;;;-0.06;80.99;92404.75;4196356;28;20063;-69
2023/11/26 03:58:45;;;;;;;5.88;3.97;;;;;;;0.01;80.91;92401.56;4195629;28;20044;-69
2023/11/26 04:00:47;;;;;;;6.60;4.47;;;;;;;0.02;80.42;92428.91;4197114;28;20056;-70
2023/11/26 04:02:49;;;;;;;6.70;4.82;;;;;;;-0.02;79.91;92420.72;4199477;28;20055;-69
2023/11/26 04:04:52;;;;;;;6.35;5.10;;;;;;;-0.19;79.53;92426.69;4199033;28;20131;-69
2023/11/26 04:06:54;;;;;;;5.45;4.85;;;;;;;-0.20;80.53;92441.31;4184985;28;20047;-69
2023/11/26 04:08:57;;;;;;;5.13;4.63;;;;;;;-0.32;80.39;92443.34;4197206;28;20095;-70
2023/11/26 04:11:00;;;;;;;6.82;5.38;;;;;;;-0.24;80.39;92447.72;4196800;28;20044;-69
2023/11/26 04:13:03;;;;;;;6.05;4.95;;;;;;;-0.28;80.32;92444.66;4196101;28;20052;-70
2023/11/26 04:15:06;;;;;;;5.63;4.97;;;;;;;-0.19;79.72;92444.69;4197266;28;20113;-71
2023/11/26 04:17:08;;;;;;;6.63;5.40;;;;;;;-0.14;79.34;92458.75;4195911;28;20415;-69
2023/11/26 04:19:10;;;;;;;5.57;4.97;;;;;;;-0.24;79.58;92463.16;4186476;28;20085;-70
2023/11/26 04:21:12;;;;;;;5.50;4.78;;;;;;;-0.21;78.77;92473.16;4195453;28;20060;-71
2023/11/26 04:23:15;;;;;;;7.13;5.60;;;;;;;-0.60;78.77;92488.09;4197475;28;20047;-69
2023/11/26 04:25:16;;;;;;;7.20;5.47;;;;;;;-0.53;80.46;92482.22;4195589;28;20098;-68
2023/11/26 04:27:21;;;;;;;8.50;5.97;;;;;;;-0.47;79.78;92484.22;4184514;28;20513;-69
2023/11/26 04:29:22;;;;;;;7.55;5.70;;;;;;;-0.58;78.79;92491.31;4173646;28;20095;-70
2023/11/26 04:31:24;;;;;;;6.57;5.30;;;;;;;-0.56;78.95;92500.53;4174843;28;20037;-71
2023/11/26 04:33:27;;;;;;;7.97;6.18;;;;;;;-0.69;78.68;92528.34;4195295;28;20129;-69
2023/11/26 04:35:29;;;;;;;7.60;5.55;;;;;;;-0.67;79.61;92521.28;4192731;28;20082;-70
2023/11/26 04:37:31;;;;;;;6.97;5.72;;;;;;;-0.71;79.42;92510.50;4178664;28;20541;-69
2023/11/26 04:39:33;;;;;;;11.77;5.43;;;;;;;-0.72;79.07;92514.03;4189736;28;20418;-69
2023/11/26 04:41:35;;;;;;;6.82;5.70;;;;;;;-0.68;79.55;92522.25;4183733;28;20041;-70
2023/11/26 04:43:37;;;;;;;6.40;5.10;;;;;;;-0.74;78.71;92526.22;4197253;28;20052;-69
2023/11/26 04:45:38;;;;;;;7.85;5.43;;;;;;;-0.74;79.18;92533.13;4192079;28;20052;-69
2023/11/26 04:47:40;;;;;;;7.10;5.25;;;;;;;-0.78;78.97;92537.72;4189763;28;20063;-69
2023/11/26 04:49:42;;;;;;;7.75;5.65;;;;;;;-0.82;78.44;92559.53;4193411;28;20098;-68
2023/11/26 04:51:45;;;;;;;7.10;5.47;;;;;;;-0.81;78.50;92555.22;4196642;28;20048;-69
2023/11/26 04:53:47;;;;;;;7.70;5.85;;;;;;;-0.73;78.27;92556.13;4195189;28;20137;-68
2023/11/26 04:55:49;;;;;;;7.45;5.38;;;;;;;-0.74;77.82;92556.25;4193884;28;20132;-69
2023/11/26 04:57:51;;;;;;;6.72;5.30;;;;;;;-0.68;77.24;92564.22;4167012;28;20530;-69
2023/11/26 04:59:53;;;;;;;6.38;5.20;;;;;;;-0.63;76.70;92571.47;4179469;28;20419;-69
2023/11/26 05:01:55;;;;;;;6.30;5.55;;;;;;;-0.48;76.64;92567.47;4167415;28;20105;-69
2023/11/26 05:03:58;;;;;;;5.55;4.72;;;;;;;-0.49;76.04;92573.56;4203083;28;20443;-70
2023/11/26 05:06:00;;;;;;;6.47;5.05;;;;;;;-0.48;75.79;92577.75;4196676;28;20418;-70
2023/11/26 05:08:02;;;;;;;7.03;5.10;;;;;;;-0.54;75.70;92590.38;4196885;28;20057;-70
2023/11/26 05:10:06;;;;;;;5.10;4.43;;;;;;;-0.64;74.94;92590.44;4193633;28;20465;-72
2023/11/26 05:12:08;;;;;;;7.80;5.10;;;;;;;-0.51;75.09;92605.53;4195548;28;21149;-71
2023/11/26 05:14:10;;;;;;;6.13;4.70;;;;;;;-0.75;74.98;92608.63;4176587;28;20119;-69
2023/11/26 05:16:13;;;;;;;7.53;4.80;;;;;;;-0.55;75.18;92625.59;4193535;28;20060;-71
2023/11/26 05:18:15;;;;;;;10.57;4.18;;;;;;;-0.75;74.12;92630.03;4192502;28;20136;-67
2023/11/26 05:20:18;;;;;;;7.03;4.60;;;;;;;-0.81;74.97;92637.50;4190801;28;20099;-70
2023/11/26 05:22:20;;;;;;;6.00;4.30;;;;;;;-0.94;74.84;92633.47;4187695;28;20040;-69
2023/11/26 05:24:22;;;;;;;5.43;4.40;;;;;;;-0.72;75.32;92652.06;4193802;28;20051;-68
2023/11/26 05:26:26;;;;;;;4.90;4.32;;;;;;;-0.74;74.62;92661.69;4195445;28;20506;-70
2023/11/26 05:28:29;;;;;;;;;;;;;;;-0.67;73.82;92660.16;4177126;28;20132;-70
2023/11/26 05:30:31;;;;;;;5.05;3.63;;;;;;;-0.86;73.28;92668.75;4197295;28;19920;-69
2023/11/26 05:32:32;;;;;;;5.07;3.97;;;;;;;-0.77;73.65;92669.69;4196120;28;20055;-70
2023/11/26 05:34:34;;;;;;;5.40;4.00;;;;;;;-0.72;74.02;92699.16;4188387;28;20059;-69
2023/11/26 05:36:36;;;;;;;5.78;4.10;;;;;;;-0.81;73.12;92706.91;4193859;28;20048;-68
2023/11/26 05:38:38;;;;;;;5.85;4.00;;;;;;;-0.90;73.45;92718.84;4193822;28;20430;-73
2023/11/26 05:40:40;;;;;;;6.78;4.93;;;;;;;-1.02;73.88;92725.88;4195940;28;20044;-69
2023/11/26 05:42:42;;;;;;;5.75;4.32;;;;;;;-1.04;73.86;92728.56;4178218;28;20056;-70
2023/11/26 05:44:43;;;;;;;8.77;4.20;;;;;;;-1.05;73.65;92731.31;4193088;28;20135;-67
2023/11/26 05:46:45;;;;;;;4.93;3.70;;;;;;;-0.95;73.31;92734.66;4183201;28;20466;-70
2023/11/26 05:48:47;;;;;;;5.30;3.67;;;;;;;-0.93;72.92;92755.88;4192336;28;20048;-70
2023/11/26 05:50:49;;;;;;;7.88;4.30;;;;;;;-0.93;72.98;92755.88;4195080;28;20504;-70
2023/11/26 05:52:51;;;;;;;6.00;5.03;;;;;;;-0.83;72.71;92754.13;4196248;28;20101;-69
2023/11/26 05:54:53;;;;;;;5.45;4.00;;;;;;;-0.86;72.27;92767.25;4194310;28;20048;-71
2023/11/26 05:56:55;;;;;;;5.82;4.38;;;;;;;-0.85;72.41;92770.63;4190642;28;20049;-70
2023/11/26 05:58:57;;;;;;;5.35;4.05;;;;;;;-0.88;72.51;92771.72;4187564;28;20041;-72
2023/11/26 06:00:59;;;;;;;6.15;3.78;;;;;;;-0.86;72.03;92785.25;4177604;28;20460;-67
2023/11/26 06:03:01;;;;;;;5.72;3.83;;;;;;;-0.76;71.38;92798.06;4195951;28;20127;-69
2023/11/26 06:05:04;;;;;;;6.95;4.10;;;;;;;-0.89;71.03;92807.84;4197607;28;20060;-70
2023/11/26 06:07:09;;;;;;;5.50;3.70;;;;;;;-0.98;71.98;92809.47;4178379;28;20474;-70
2023/11/26 06:09:11;;;;;;;6.10;3.78;;;;;;;-0.95;71.18;92818.66;4195903;28;20048;-71
2023/11/26 06:11:13;;;;;;;7.07;3.63;;;;;;;-0.84;71.45;92814.22;4195897;28;20060;-70
2023/11/26 06:13:15;;;;;;;6.70;3.53;;;;;;;-0.86;71.16;92828.13;4191977;28;20048;-69
2023/11/26 06:15:17;;;;;;;6.43;3.50;;;;;;;-0.94;71.46;92841.66;4192608;28;20048;-71
2023/11/26 06:17:18;;;;;;;6.55;3.97;;;;;;;-0.89;71.99;92831.78;4193618;28;20093;-73
2023/11/26 06:19:20;;;;;;;5.28;3.90;;;;;;;-0.78;71.05;92853.16;4187768;28;20107;-71
2023/11/26 06:21:22;;;;;;;6.20;4.10;;;;;;;-0.67;70.70;92842.72;4177863;28;20460;-71
2023/11/26 06:23:25;;;;;;;6.20;3.78;;;;;;;-0.71;70.26;92847.34;4188458;28;20499;-68
2023/11/26 06:25:26;;;;;;;7.00;4.05;;;;;;;-0.83;71.16;92876.72;4195952;28;20552;-70
2023/11/26 06:27:28;;;;;;;5.63;3.40;;;;;;;-0.77;70.03;92865.88;4188255;28;20119;-69
2023/11/26 06:29:30;;;;;;;6.22;4.10;;;;;;;-0.77;70.32;92871.03;4189321;28;20122;-71
2023/11/26 06:31:32;;;;;;;7.47;4.45;;;;;;;-0.81;70.71;92889.44;4195431;28;20119;-69
2023/11/26 06:33:34;;;;;;;7.35;4.05;;;;;;;-0.92;70.60;92887.81;4171197;28;20176;-70
2023/11/26 06:35:36;;;;;;;5.82;3.65;;;;;;;-0.79;71.15;92888.34;4190096;28;20510;-70
2023/11/26 06:37:38;;;;;;;4.82;3.50;;;;;;;-0.80;70.13;92896.19;4169341;28;20057;-70
2023/11/26 06:39:40;;;;;;;7.03;4.00;;;;;;;-0.85;70.37;92902.53;4186709;28;20095;-70
2023/11/26 06:41:43;;;;;;;5.63;4.07;;;;;;;-0.79;70.60;92914.06;4171356;28;20059;-71
2023/11/26 06:43:46;;;;;;;6.13;4.40;;;;;;;-0.80;70.99;92919.31;4189833;28;20083;-71
2023/11/26 06:45:47;;;;;;;6.82;4.22;;;;;;;-0.84;70.70;92923.91;4191700;28;20056;-71
2023/11/26 06:47:49;;;;;;;5.63;3.85;;;;;;;-0.95;70.72;92930.00;4188313;28;20056;-70
2023/11/26 06:49:51;;;;;;;6.50;4.25;;;;;;;-0.96;71.05;92950.72;4190624;28;20052;-71
2023/11/26 06:51:55;;;;;;;5.30;3.85;;;;;;;-0.92;70.80;92942.59;4195636;28;20044;-70
2023/11/26 06:53:57;;;;;;;5.70;3.90;;;;;;;-0.95;70.40;92944.63;4194940;28;20101;-73
2023/11/26 06:55:59;;;;;;;5.00;3.70;;;;;;;-0.84;70.30;92958.19;4194010;28;20995;-72
2023/11/26 06:58:01;;;;;;;6.07;4.18;;;;;;;-0.97;70.54;92955.03;4192641;28;20056;-73
2023/11/26 07:00:04;;;;;;;6.40;4.38;;;;;;;-0.96;70.35;92951.53;4195213;28;20059;-70
2023/11/26 07:02:11;;;;;;;6.75;4.43;;;;;;;-0.98;70.44;92965.44;4182592;28;20596;-71
2023/11/26 07:04:13;;;;;;;6.82;4.38;;;;;;;-1.04;70.65;92962.44;4193528;28;20427;-71
2023/11/26 07:06:16;;;;;;;7.93;4.38;;;;;;;-0.80;70.53;92970.75;4180507;28;20118;-72
2023/11/26 07:08:18;;;;;;;6.47;4.25;;;;;;;-0.85;70.05;92969.38;4182214;28;20045;-68
2023/11/26 07:10:21;;;;;;;5.57;3.85;;;;;;;-0.85;69.94;93020.81;4195802;28;20079;-70
2023/11/26 07:12:23;;;;;;;5.75;3.83;;;;;;;-0.82;69.25;92983.72;4193819;28;20127;-70
2023/11/26 07:14:25;;;;;;;9.15;3.80;;;;;;;-0.85;70.24;92984.00;4194652;28;20431;-70
2023/11/26 07:16:27;;;;;;;5.72;4.10;;;;;;;-0.86;69.67;93026.91;4176156;28;20092;-70
2023/11/26 07:18:28;;;;;;;6.90;4.40;;;;;;;-1.01;70.91;92997.38;4195260;28;20044;-72
2023/11/26 07:20:30;;;;;;;8.32;4.18;;;;;;;-0.86;71.13;93008.91;4189963;28;20045;-70
2023/11/26 07:22:35;;;;;;;7.60;4.03;;;;;;;-0.78;70.02;93012.56;4190632;28;20055;-70
2023/11/26 07:24:40;;;;;;;10.15;3.95;;;;;;;-0.72;69.76;93020.56;4194910;28;20060;-73
2023/11/26 07:26:42;;;;;;;5.90;4.10;;;;;;;-0.80;69.77;93028.13;4186234;28;20064;-69
2023/11/26 07:28:50;;;;;;;6.65;4.00;;;;;;;-0.84;69.30;93021.63;4196845;28;20052;-70
2023/11/26 07:30:52;;;;;;;5.38;3.90;;;;;;;-0.96;69.73;93033.78;4197979;28;20045;-71
2023/11/26 07:32:55;;;;;;;5.70;4.15;;;;;;;-1.02;70.50;93034.28;4193326;28;20048;-70
2023/11/26 07:34:57;;;;;;;6.82;4.60;;;;;;;-1.06;70.42;93048.34;4198078;28;20052;-70
2023/11/26 07:36:59;;;;;;;5.82;3.97;;;;;;;-0.99;70.17;93036.63;4198810;28;20523;-72
2023/11/26 07:39:01;;;;;;;6.47;4.60;;;;;;;-0.95;69.97;93040.53;4190114;28;20058;-70
2023/11/26 07:41:03;;;;;;;5.13;3.80;;;;;;;-1.07;70.05;93065.53;4193686;28;20131;-69
2023/11/26 07:43:04;;;;;;;8.13;4.07;;;;;;;-1.05;70.76;93057.69;4178142;28;20120;-70
2023/11/26 07:45:11;;;;;;;5.85;3.97;;;;;;;-0.87;70.55;93058.69;4192569;28;20444;-71
2023/11/26 07:47:13;;;;;;;6.22;4.22;;;;;;;-0.80;70.26;93064.13;4171610;28;20496;-71
2023/11/26 07:49:14;;;;;;;5.82;3.75;;;;;;;-0.84;70.08;93068.72;4179982;28;20107;-70
2023/11/26 07:51:16;;;;;;;6.22;4.10;;;;;;;-0.81;69.39;93082.25;4194919;28;20060;-71
2023/11/26 07:53:18;;;;;;;7.68;3.90;;;;;;;-0.97;68.81;93098.97;4175528;28;20041;-71
2023/11/26 07:55:20;;;;;;;6.82;4.28;;;;;;;-0.91;69.55;93080.44;4179427;28;20045;-71
2023/11/26 07:57:22;;;;;;;4.80;3.70;;;;;;;-0.84;69.42;93086.72;4187825;28;20049;-71
2023/11/26 07:59:25;;;;;;;6.68;3.33;;;;;;;-0.78;69.07;93093.09;4189715;28;20048;-70
2023/11/26 08:01:27;;;;;;;5.57;4.20;;;;;;;-0.74;68.97;93106.50;4187538;28;20049;-69
2023/11/26 08:03:31;;;;;;;7.03;4.07;;;;;;;-0.84;69.41;93106.44;4202940;28;20048;-71
2023/11/26 08:05:36;;;;;;;6.15;4.22;;;;;;;-0.86;69.19;93110.91;4195575;28;20062;-72
2023/11/26 08:07:38;;;;;;;7.57;4.10;;;;;;;-0.86;69.10;93098.88;4173827;28;20055;-72
2023/11/26 08:09:40;;;;;;;5.22;4.00;;;;;;;-0.87;70.01;93128.09;4191494;28;20132;-71
2023/11/26 08:11:46;;;;;;;6.53;4.00;;;;;;;-0.88;69.81;93116.19;4194320;28;20102;-71
2023/11/26 08:13:48;;;;;;;6.35;4.00;;;;;;;-0.65;69.69;93136.56;4191775;28;20491;-72
2023/11/26 08:15:50;;;;;;;21.20;4.70;;;;;;;-0.83;70.14;93147.47;4190668;28;20098;-73
2023/11/26 08:17:55;;;;;;;5.82;4.03;;;;;;;-0.95;70.04;93130.50;4190210;28;20088;-70
2023/11/26 08:19:56;;;;;;;7.00;4.40;;;;;;;-0.85;69.75;93118.50;4196066;28;20048;-70
2023/11/26 08:21:59;;;;;;;6.38;3.92;;;;;;;-0.97;71.12;93140.09;4193646;28;20143;-71
2023/11/26 08:24:02;;;;;;;7.40;4.40;;;;;;;-0.92;70.67;93150.81;4190218;28;20110;-71
2023/11/26 08:26:05;;;;;;;6.32;3.75;;;;;;;-1.04;69.98;93167.25;4197432;28;20074;-73
2023/11/26 08:28:14;;;;;;;6.72;4.30;;;;;;;-1.01;69.54;93173.88;4180879;28;20068;-74
2023/11/26 08:30:34;;;;;;;14.32;3.97;;;;;;;-1.08;69.76;93197.53;4194922;28;20060;-71
2023/11/26 08:32:39;;;;;;;5.85;3.67;;;;;;;-1.12;69.27;93182.47;4189603;28;20094;-72
2023/11/26 08:34:43;;;;;;;5.63;3.83;;;;;;;-0.96;69.12;93179.47;4185852;28;20054;-68
2023/11/26 08:36:45;;;;;;;5.35;3.88;;;;;;;-0.91;68.70;93197.91;4196558;28;20130;-71
2023/11/26 08:38:48;;;;;;;5.43;4.20;;;;;;;-0.80;68.21;93197.00;4192935;28;20072;-70
2023/11/26 08:40:50;;;;;;;5.82;4.13;;;;;;;-0.80;67.85;93202.16;4183063;28;20049;-68
2023/11/26 08:42:54;;;;;;;4.55;3.53;;;;;;;-0.75;67.52;93200.00;4167075;28;20046;-70
2023/11/26 08:44:57;;;;;;;5.05;3.35;;;;;;;-0.67;67.25;93244.75;4194661;28;20064;-72
2023/11/26 08:46:59;;;;;;;7.63;4.03;;;;;;;-0.69;66.84;93202.91;4164949;28;20045;-72
2023/11/26 08:49:03;;;;;;;5.05;3.83;;;;;;;-0.73;67.21;93210.97;4169605;28;20148;-71
2023/11/26 08:51:05;;;;;;;5.40;3.92;;;;;;;-0.72;68.34;93200.56;4186851;28;20050;-73
2023/11/26 08:53:09;;;;;;;6.13;3.88;;;;;;;-0.52;67.57;93210.94;4196628;28;20059;-71
2023/11/26 08:55:11;;;;;;;6.78;4.00;;;;;;;-0.58;67.08;93217.44;4197096;28;20072;-72
2023/11/26 08:57:13;;;;;;;6.20;3.50;;;;;;;-0.67;66.37;93224.16;4175947;28;20055;-71
2023/11/26 08:59:15;;;;;;;5.78;4.15;;;;;;;-0.67;66.56;93231.03;4196504;28;20101;-70
2023/11/26 09:01:17;;;;;;;4.75;3.38;;;;;;;-0.55;66.57;93245.47;4196888;28;20102;-71
2023/11/26 09:03:19;;;;;;;8.73;3.47;;;;;;;-0.62;65.82;93245.16;4200802;28;20097;-72
2023/11/26 09:05:21;;;;;;;6.35;3.58;;;;;;;-0.54;66.21;93252.22;4185188;28;20048;-72
2023/11/26 09:07:26;;;;;;;4.72;3.20;;;;;;;-0.46;65.30;93236.16;4191153;28;20049;-72
2023/11/26 09:09:28;;;;;;;4.47;3.45;;;;;;;-0.42;65.12;93232.38;4175166;28;20098;-75
2023/11/26 09:11:30;;;;;;;4.57;3.40;;;;;;;-0.23;65.61;93244.53;4179087;28;20056;-74
2023/11/26 09:13:32;;;;;;;4.38;3.45;;;;;;;-0.29;65.62;93235.53;4189499;28;20048;-70
2023/11/26 09:15:38;;;;;;;6.18;3.80;;;;;;;-0.24;64.80;93242.88;4185640;28;20398;-71
2023/11/26 09:17:41;;;;;;;6.22;3.50;;;;;;;-0.22;64.61;93256.44;4196380;28;20814;-71
2023/11/26 09:19:43;;;;;;;5.15;3.58;;;;;;;-0.14;63.93;93253.22;4195122;28;20086;-72
2023/11/26 09:21:49;;;;;;;5.30;3.00;;;;;;;-0.13;63.76;93258.25;4190788;28;20526;-72
2023/11/26 09:23:51;;;;;;;4.35;3.20;;;;;;;-0.13;63.74;93255.66;4187494;28;20082;-73
2023/11/26 09:25:53;;;;;;;5.55;3.33;;;;;;;-0.15;63.95;93259.28;4192732;28;20056;-72
2023/11/26 09:27:55;;;;;;;5.10;3.33;;;;;;;-0.02;63.32;93255.56;4196168;28;20052;-71
2023/11/26 09:29:57;;;;;;;4.07;3.05;;;;;;;0.11;63.07;93252.75;4195736;28;20479;-70
2023/11/26 09:31:59;;;;;;;4.80;3.30;;;;;;;0.29;62.32;93259.84;4193410;28;20414;-70
2023/11/26 09:34:01;;;;;;;4.53;2.90;;;;;;;0.22;61.65;93256.97;4190679;28;20072;-71
2023/11/26 09:36:05;;;;;;;5.22;2.90;;;;;;;0.36;61.75;93263.50;4188696;28;20045;-71
2023/11/26 09:38:08;;;;;;;5.57;3.00;;;;;;;0.11;62.27;93263.06;4189038;28;20045;-72
2023/11/26 09:40:11;;;;;;;5.22;3.00;;;;;;;0.25;63.98;93272.16;4191607;28;20110;-71
2023/11/26 09:42:13;;;;;;;6.88;3.00;;;;;;;0.45;62.48;93277.34;4189740;28;20491;-72